Time;durP1;ratioP1;P1;durP2;ratioP2;P2;SDS_P1;SDS_P2;PMS_P1;PMS_P2;Temp;Humidity;BMP_temperature;BMP_pressure;BME280_temperature;BME280_humidity;BME280_pressure;Samples;Min_cycle;Max_cycle;Signal;HPM_P1;HPM_P2
2023/04/01 00:00:12;;;;;;;0.50;0.50;;;;;;;-1.29;80.49;99618.22;5044349;28;20032;-68
2023/04/01 00:02:37;;;;;;;0.60;0.60;;;;;;;-1.29;80.66;99636.03;5045719;28;20085;-67
2023/04/01 00:05:03;;;;;;;0.50;0.50;;;;;;;-1.26;79.37;99625.06;5045427;28;20029;-67
2023/04/01 00:07:28;;;;;;;0.60;0.60;;;;;;;-1.25;79.52;99631.91;5027840;28;20021;-67
2023/04/01 00:09:54;;;;;;;0.60;0.60;;;;;;;-1.26;78.59;99636.13;5045543;28;20026;-66
2023/04/01 00:12:20;;;;;;;0.60;0.60;;;;;;;-1.38;78.62;99651.06;5044621;28;20092;-66
2023/04/01 00:14:45;;;;;;;0.57;0.57;;;;;;;-1.42;79.18;99647.56;5045303;28;20027;-66
2023/04/01 00:17:11;;;;;;;1.52;1.42;;;;;;;-1.29;77.92;99640.25;5045253;28;20080;-66
2023/04/01 00:19:36;;;;;;;0.63;0.63;;;;;;;-1.26;77.17;99636.13;5045055;28;20029;-66
2023/04/01 00:22:02;;;;;;;0.60;0.60;;;;;;;-1.34;77.57;99641.84;5044190;28;20041;-66
2023/04/01 00:24:28;;;;;;;0.50;0.50;;;;;;;-1.41;77.20;99656.94;5045591;28;20026;-66
2023/04/01 00:26:54;;;;;;;0.50;0.50;;;;;;;-1.55;77.60;99636.16;5045362;28;20021;-66
2023/04/01 00:29:19;;;;;;;0.60;0.60;;;;;;;-1.54;77.39;99660.81;5044022;28;20055;-65
2023/04/01 00:31:45;;;;;;;0.60;0.60;;;;;;;-1.63;78.29;99660.56;5045291;28;20415;-66
2023/04/01 00:34:12;;;;;;;0.57;0.57;;;;;;;-1.68;78.67;99651.91;5045142;28;20033;-66
2023/04/01 00:36:38;;;;;;;0.60;0.60;;;;;;;-1.62;78.27;99665.69;5045219;28;20021;-66
2023/04/01 00:39:03;;;;;;;0.60;0.60;;;;;;;-1.64;77.57;99676.63;5043750;28;20045;-66
2023/04/01 00:41:29;;;;;;;0.60;0.60;;;;;;;-1.70;77.59;99669.69;5045280;28;20024;-66
2023/04/01 00:44:16;;;;;;;0.60;0.60;;;;;;;-1.73;76.67;99661.09;5044261;28;20525;-65
2023/04/01 00:46:41;;;;;;;0.60;0.60;;;;;;;-1.66;76.00;99681.69;5045016;28;20421;-66
2023/04/01 00:49:07;;;;;;;0.60;0.60;;;;;;;-1.85;76.83;99675.16;5043751;28;20036;-65
2023/04/01 00:51:35;;;;;;;0.50;0.50;;;;;;;-1.90;77.07;99687.75;5045229;28;20021;-65
2023/04/01 00:54:03;;;;;;;0.60;0.60;;;;;;;-1.91;76.21;99677.53;5042279;28;20053;-66
2023/04/01 00:56:32;;;;;;;0.57;0.57;;;;;;;-1.82;75.79;99690.53;5043125;28;20021;-66
2023/04/01 00:59:01;;;;;;;0.60;0.60;;;;;;;-1.83;74.95;99686.28;5044837;28;20090;-65
2023/04/01 01:01:29;;;;;;;0.60;0.60;;;;;;;-2.01;76.10;99689.97;5043963;28;20065;-66
2023/04/01 01:03:55;;;;;;;0.60;0.60;;;;;;;-2.08;77.06;99718.59;5044901;28;20017;-65
2023/04/01 01:06:43;;;;;;;0.60;0.60;;;;;;;-2.10;77.11;99707.50;5043532;28;20075;-65
2023/04/01 01:09:08;;;;;;;0.50;0.50;;;;;;;-2.15;77.00;99717.53;5044811;28;20027;-65
2023/04/01 01:11:42;;;;;;;0.60;0.60;;;;;;;-2.17;76.88;99713.22;5043317;28;20116;-65
2023/04/01 01:14:19;;;;;;;0.60;0.60;;;;;;;-2.19;76.78;99705.50;5044508;28;20021;-66
2023/04/01 01:16:50;;;;;;;0.60;0.60;;;;;;;-2.20;76.87;99731.75;5044432;28;20041;-65
2023/04/01 01:19:48;;;;;;;0.70;0.70;;;;;;;-2.27;76.99;99717.97;5043887;28;20025;-64
2023/04/01 01:22:19;;;;;;;0.60;0.60;;;;;;;-2.32;77.03;99727.16;5043443;28;20116;-65
2023/04/01 01:24:51;;;;;;;0.60;0.60;;;;;;;-2.42;77.97;99727.66;5044725;28;20030;-65
2023/04/01 01:27:19;;;;;;;0.70;0.70;;;;;;;-2.51;78.35;99718.03;5043683;28;20032;-65
2023/04/01 01:29:51;;;;;;;0.60;0.60;;;;;;;-2.35;77.20;99733.81;5043890;28;20036;-66
2023/04/01 01:32:35;;;;;;;0.80;0.80;;;;;;;-2.48;77.92;99728.31;5044761;28;20031;-65
2023/04/01 01:35:09;;;;;;;0.60;0.60;;;;;;;-2.55;77.66;99734.88;5046501;28;20508;-65
2023/04/01 01:37:36;;;;;;;0.50;0.50;;;;;;;-2.56;77.37;99744.97;5048100;28;20064;-64
2023/04/01 01:40:05;;;;;;;0.52;0.52;;;;;;;-2.66;77.68;99737.03;5047435;28;20037;-64
2023/04/01 01:42:35;;;;;;;0.60;0.60;;;;;;;-2.67;77.54;99742.06;5048236;28;20022;-66
2023/04/01 01:45:02;;;;;;;0.70;0.70;;;;;;;-2.63;76.67;99744.78;5048183;28;20021;-66
2023/04/01 01:47:29;;;;;;;0.45;0.45;;;;;;;-2.70;77.16;99749.59;5047038;28;20032;-66
2023/04/01 01:49:55;;;;;;;0.60;0.60;;;;;;;-2.84;77.68;99742.34;5047909;28;20555;-66
2023/04/01 01:52:24;;;;;;;0.60;0.60;;;;;;;-2.75;76.74;99745.19;5047765;28;20036;-67
2023/04/01 01:54:52;;;;;;;0.60;0.60;;;;;;;-2.81;77.18;99750.06;5047198;28;20036;-65
2023/04/01 01:57:23;;;;;;;0.60;0.60;;;;;;;-2.82;76.92;99753.44;5047925;28;20085;-65
2023/04/01 01:59:52;;;;;;;0.70;0.70;;;;;;;-2.90;77.33;99754.81;5046790;28;20429;-66
2023/04/01 02:02:18;;;;;;;0.60;0.60;;;;;;;-2.84;77.00;99755.03;5048098;28;20089;-65
2023/04/01 02:04:45;;;;;;;0.60;0.60;;;;;;;-2.90;76.85;99765.84;5048051;28;20047;-66
2023/04/01 02:07:16;;;;;;;0.60;0.60;;;;;;;-2.97;77.34;99770.66;5047939;28;20035;-66
2023/04/01 02:09:43;;;;;;;0.63;0.63;;;;;;;-3.02;77.13;99753.56;5046609;28;20030;-66
2023/04/01 02:12:12;;;;;;;0.60;0.60;;;;;;;-3.07;77.82;99754.22;5048154;28;20024;-64
2023/04/01 02:14:47;;;;;;;0.60;0.60;;;;;;;-3.12;78.01;99777.78;5046017;28;20488;-64
2023/04/01 02:17:26;;;;;;;0.60;0.60;;;;;;;-3.10;77.70;99762.59;5046611;28;20510;-64
2023/04/01 02:19:55;;;;;;;0.60;0.60;;;;;;;-3.18;77.93;99771.59;5046681;28;20052;-64
2023/04/01 02:22:28;;;;;;;0.50;0.50;;;;;;;-3.26;78.16;99763.72;5045088;28;20033;-64
2023/04/01 02:25:00;;;;;;;0.50;0.50;;;;;;;-3.35;78.10;99754.06;5046731;28;20017;-65
2023/04/01 02:27:25;;;;;;;;;;;;;;;-3.24;77.71;99775.63;5048023;28;20025;-65
2023/04/01 02:29:52;;;;;;;0.60;0.60;;;;;;;-3.26;77.52;99781.47;5047365;28;19948;-64
2023/04/01 02:32:19;;;;;;;0.60;0.60;;;;;;;-3.41;77.96;99776.66;5046159;28;20079;-65
2023/04/01 02:34:45;;;;;;;0.60;0.60;;;;;;;-3.45;78.22;99780.75;5047344;28;20446;-66
2023/04/01 02:37:12;;;;;;;0.50;0.50;;;;;;;-3.45;78.37;99785.84;5047376;28;20029;-64
2023/04/01 02:39:37;;;;;;;0.60;0.60;;;;;;;-3.37;77.24;99783.63;5047438;28;20079;-64
2023/04/01 02:42:03;;;;;;;1.40;1.40;;;;;;;-3.55;77.67;99779.56;5047471;28;20413;-65
2023/04/01 02:44:29;;;;;;;0.70;0.70;;;;;;;-3.54;77.85;99805.78;5045117;28;20053;-63
2023/04/01 02:46:54;;;;;;;0.60;0.60;;;;;;;-3.55;78.01;99802.41;5045926;28;20021;-64
2023/04/01 02:49:20;;;;;;;0.60;0.60;;;;;;;-3.56;77.97;99794.72;5046771;28;20045;-65
2023/04/01 02:51:45;;;;;;;0.60;0.60;;;;;;;-3.61;78.52;99799.63;5047050;28;20442;-65
2023/04/01 02:54:11;;;;;;;0.60;0.60;;;;;;;-3.67;78.56;99804.44;5047042;28;20030;-65
2023/04/01 02:56:36;;;;;;;0.63;0.63;;;;;;;-3.64;78.27;99800.34;5047111;28;20021;-64
2023/04/01 02:59:01;;;;;;;0.70;0.70;;;;;;;-3.68;78.00;99795.97;5047047;28;20379;-65
2023/04/01 03:01:27;;;;;;;0.60;0.60;;;;;;;-3.65;78.10;99807.91;5046755;28;20018;-64
2023/04/01 03:03:52;;;;;;;0.70;0.70;;;;;;;-3.66;77.88;99813.78;5047171;28;20271;-65
2023/04/01 03:06:18;;;;;;;0.68;0.68;;;;;;;-3.66;77.74;99811.25;5046913;28;20030;-65
2023/04/01 03:08:44;;;;;;;0.60;0.60;;;;;;;-3.72;77.99;99811.00;5047045;28;20030;-65
2023/04/01 03:11:10;;;;;;;0.60;0.60;;;;;;;-3.66;77.66;99816.31;5045470;28;20204;-64
2023/04/01 03:13:36;;;;;;;0.60;0.60;;;;;;;-3.72;78.09;99816.09;5046375;28;20398;-65
2023/04/01 03:16:02;;;;;;;0.60;0.60;;;;;;;-3.69;77.88;99816.22;5046659;28;20025;-64
2023/04/01 03:18:27;;;;;;;0.70;0.70;;;;;;;-3.69;77.61;99822.13;5046323;28;20076;-64
2023/04/01 03:20:53;;;;;;;0.60;0.60;;;;;;;-3.70;77.67;99829.69;5046642;28;20025;-65
2023/04/01 03:23:20;;;;;;;0.63;0.63;;;;;;;-3.74;77.70;99828.72;5045205;28;20033;-64
2023/04/01 03:25:46;;;;;;;0.70;0.70;;;;;;;-3.68;77.60;99840.75;5046668;28;20025;-64
2023/04/01 03:28:13;;;;;;;0.60;0.60;;;;;;;-3.75;77.49;99834.56;5045495;28;20029;-65
2023/04/01 03:30:39;;;;;;;0.60;0.60;;;;;;;-3.71;77.00;99849.13;5045512;28;20046;-64
2023/04/01 03:33:05;;;;;;;0.60;0.60;;;;;;;-3.76;77.24;99837.91;5046430;28;20036;-64
2023/04/01 03:35:31;;;;;;;0.60;0.60;;;;;;;-3.62;76.33;99846.09;5046260;28;20029;-64
2023/04/01 03:37:56;;;;;;;0.60;0.60;;;;;;;-3.72;76.61;99851.59;5046261;28;20117;-64
2023/04/01 03:40:22;;;;;;;0.70;0.70;;;;;;;-3.79;76.86;99850.47;5043141;28;20029;-65
2023/04/01 03:42:48;;;;;;;0.70;0.70;;;;;;;-3.86;77.10;99846.81;5045804;28;20106;-66
2023/04/01 03:45:13;;;;;;;0.60;0.60;;;;;;;-3.85;77.35;99856.19;5043253;28;20029;-64
2023/04/01 03:47:39;;;;;;;0.60;0.60;;;;;;;-3.81;76.33;99847.88;5045974;28;20033;-65
2023/04/01 03:50:06;;;;;;;0.60;0.60;;;;;;;-3.84;76.64;99857.03;5046233;28;20029;-64
2023/04/01 03:52:32;;;;;;;0.60;0.60;;;;;;;-3.89;76.91;99859.38;5046340;28;20108;-65
2023/04/01 03:54:57;;;;;;;0.60;0.60;;;;;;;-3.88;76.87;99863.63;5045562;28;20083;-64
2023/04/01 03:57:22;;;;;;;0.60;0.60;;;;;;;-3.83;76.46;99864.69;5043986;28;20065;-64
2023/04/01 03:59:48;;;;;;;0.60;0.60;;;;;;;-3.87;76.19;99857.78;5045911;28;20052;-65
2023/04/01 04:02:13;;;;;;;0.70;0.70;;;;;;;-3.88;76.48;99856.03;5045962;28;20425;-65
2023/04/01 04:04:39;;;;;;;0.60;0.60;;;;;;;-3.87;76.06;99860.31;5045944;28;20033;-64
2023/04/01 04:07:05;;;;;;;0.60;0.60;;;;;;;-3.92;76.36;99866.88;5045657;28;20022;-64
2023/04/01 04:09:31;;;;;;;0.60;0.60;;;;;;;-3.74;74.89;99860.00;5045768;28;20030;-64
2023/04/01 04:11:57;;;;;;;0.65;0.65;;;;;;;-3.86;75.21;99862.03;5045773;28;20076;-65
2023/04/01 04:14:22;;;;;;;0.60;0.60;;;;;;;-3.86;75.02;99864.56;5045882;28;20021;-64
2023/04/01 04:16:48;;;;;;;0.60;0.60;;;;;;;-3.92;75.49;99877.00;5045564;28;20053;-65
2023/04/01 04:19:14;;;;;;;0.98;0.98;;;;;;;-3.92;75.17;99880.41;5045753;28;20075;-64
2023/04/01 04:21:41;;;;;;;0.60;0.60;;;;;;;-3.88;74.47;99873.78;5044671;28;20060;-64
2023/04/01 04:24:07;;;;;;;0.60;0.60;;;;;;;-3.94;74.70;99883.66;5044749;28;20029;-63
2023/04/01 04:26:33;;;;;;;0.60;0.60;;;;;;;-3.99;74.78;99875.88;5043599;28;20075;-63
2023/04/01 04:28:59;;;;;;;0.60;0.60;;;;;;;-4.00;74.85;99892.78;5044482;28;20029;-64
2023/04/01 04:31:26;;;;;;;0.70;0.70;;;;;;;-4.04;75.05;99890.91;5044721;28;20028;-63
2023/04/01 04:33:52;;;;;;;0.70;0.70;;;;;;;-4.13;75.17;99881.25;5043675;28;20104;-63
2023/04/01 04:36:18;;;;;;;0.60;0.60;;;;;;;-4.11;75.54;99888.91;5044622;28;20155;-63
2023/04/01 04:38:44;;;;;;;0.68;0.68;;;;;;;-4.01;74.19;99911.31;5043728;28;20029;-63
2023/04/01 04:41:12;;;;;;;0.60;0.60;;;;;;;-4.02;74.53;99896.03;5044940;28;20021;-63
2023/04/01 04:43:38;;;;;;;0.60;0.60;;;;;;;-4.08;74.70;99914.41;5045061;28;20025;-63
2023/04/01 04:46:10;;;;;;;0.60;0.60;;;;;;;-4.06;74.65;99907.75;5045080;28;20089;-63
2023/04/01 04:48:36;;;;;;;0.60;0.60;;;;;;;-4.08;75.17;99911.88;5045249;28;20033;-63
2023/04/01 04:51:02;;;;;;;0.77;0.77;;;;;;;-4.05;75.32;99911.13;5044945;28;20378;-62
2023/04/01 04:53:27;;;;;;;1.25;1.25;;;;;;;-3.92;75.17;99915.06;5045230;28;20029;-63
2023/04/01 04:55:53;;;;;;;0.63;0.63;;;;;;;-3.79;75.41;99911.38;5045010;28;20021;-63
2023/04/01 04:58:19;;;;;;;0.70;0.70;;;;;;;-3.68;74.95;99921.97;5045215;28;20037;-64
2023/04/01 05:00:45;;;;;;;0.70;0.70;;;;;;;-3.65;75.26;99917.88;5045032;28;20051;-63
2023/04/01 05:03:11;;;;;;;0.60;0.60;;;;;;;-3.46;75.01;99927.91;5044862;28;20025;-60
2023/04/01 05:05:38;;;;;;;0.60;0.60;;;;;;;-3.32;74.45;99911.56;5045223;28;20109;-63
2023/04/01 05:08:03;;;;;;;0.60;0.60;;;;;;;-3.21;75.10;99927.22;5046351;28;20021;-64
2023/04/01 05:10:30;;;;;;;0.70;0.70;;;;;;;-3.13;74.99;99918.25;5049127;28;20021;-63
2023/04/01 05:12:55;;;;;;;0.63;0.63;;;;;;;-3.00;74.40;99937.38;5049084;28;20437;-63
2023/04/01 05:15:21;;;;;;;0.60;0.60;;;;;;;-2.85;74.79;99941.31;5049184;28;20029;-62
2023/04/01 05:17:46;;;;;;;0.60;0.60;;;;;;;-2.77;74.03;99934.88;5048633;28;20486;-62
2023/04/01 05:20:13;;;;;;;0.60;0.60;;;;;;;-2.70;73.29;99938.47;5045976;28;20089;-62
2023/04/01 05:22:39;;;;;;;0.60;0.60;;;;;;;-2.51;72.99;99949.38;5048194;28;20462;-63
2023/04/01 05:25:05;;;;;;;0.52;0.52;;;;;;;-2.35;72.63;99948.25;5046005;28;20068;-63
2023/04/01 05:27:31;;;;;;;0.60;0.60;;;;;;;-2.29;72.36;99950.16;5030722;28;20033;-62
2023/04/01 05:29:57;;;;;;;0.60;0.60;;;;;;;-2.20;72.70;99959.78;5048640;28;20026;-63
2023/04/01 05:32:22;;;;;;;0.60;0.60;;;;;;;-2.07;72.38;99971.28;5047937;28;20096;-62
2023/04/01 05:34:51;;;;;;;0.60;0.60;;;;;;;-1.95;71.90;99971.69;5047400;28;20029;-63
2023/04/01 05:37:16;;;;;;;0.60;0.60;;;;;;;-1.87;71.63;99983.03;5048052;28;20053;-62
2023/04/01 05:39:42;;;;;;;0.60;0.60;;;;;;;-1.73;71.86;99975.03;5031061;28;20056;-63
2023/04/01 05:42:07;;;;;;;0.60;0.60;;;;;;;-1.60;70.51;99968.69;5031125;28;20021;-64
2023/04/01 05:44:34;;;;;;;0.60;0.60;;;;;;;-1.57;69.57;99975.53;5048597;28;20025;-63
2023/04/01 05:47:00;;;;;;;0.60;0.60;;;;;;;-1.53;69.26;99988.44;5048687;28;20051;-64
2023/04/01 05:49:25;;;;;;;0.60;0.60;;;;;;;-1.36;68.58;99965.22;5030729;28;20089;-63
2023/04/01 05:51:51;;;;;;;0.50;0.50;;;;;;;-1.21;68.80;99979.25;5048268;28;20022;-64
2023/04/01 05:54:17;;;;;;;0.60;0.60;;;;;;;-1.13;66.76;99985.47;5046661;28;20025;-64
2023/04/01 05:56:42;;;;;;;0.50;0.50;;;;;;;-1.19;68.58;99988.69;5048217;28;20040;-63
2023/04/01 05:59:10;;;;;;;0.60;0.60;;;;;;;-1.12;68.18;99989.78;5048104;28;20420;-64
2023/04/01 06:01:36;;;;;;;0.55;0.55;;;;;;;-0.97;67.84;99996.16;5048160;28;20022;-63
2023/04/01 06:04:01;;;;;;;0.60;0.60;;;;;;;-0.91;68.86;99999.78;5048024;28;20039;-66
2023/04/01 06:06:29;;;;;;;0.60;0.60;;;;;;;-0.82;69.19;100014.50;5048108;28;20060;-63
2023/04/01 06:08:58;;;;;;;0.60;0.60;;;;;;;-0.72;68.56;99995.28;5046473;28;20044;-62
2023/04/01 06:11:34;;;;;;;0.60;0.60;;;;;;;-0.53;68.36;100011.13;5046293;28;20029;-63
2023/04/01 06:14:08;;;;;;;0.60;0.60;;;;;;;-0.37;66.12;100022.66;5046116;28;20036;-64
2023/04/01 06:17:07;;;;;;;0.60;0.60;;;;;;;-0.39;65.27;100024.28;5044465;28;20237;-64
2023/04/01 06:19:44;;;;;;;0.52;0.52;;;;;;;-0.45;66.40;100027.53;5045808;28;20025;-65
2023/04/01 06:22:31;;;;;;;0.60;0.60;;;;;;;-0.34;66.10;100038.06;5046615;28;20029;-64
2023/04/01 06:25:22;;;;;;;0.60;0.60;;;;;;;-0.08;66.22;100040.50;5046542;28;20028;-65
2023/04/01 06:27:54;;;;;;;0.60;0.60;;;;;;;0.07;66.15;100023.91;5046259;28;20017;-64
2023/04/01 06:30:40;;;;;;;0.50;0.50;;;;;;;0.24;68.14;100032.03;5046749;28;20031;-65
2023/04/01 06:33:06;;;;;;;0.55;0.55;;;;;;;0.37;66.26;100033.22;5045048;28;20048;-65
2023/04/01 06:35:53;;;;;;;0.50;0.50;;;;;;;0.38;67.02;100055.41;5047497;28;20382;-65
2023/04/01 06:38:40;;;;;;;0.50;0.50;;;;;;;0.64;65.60;100044.16;5047167;28;20026;-65
2023/04/01 06:41:21;;;;;;;0.50;0.50;;;;;;;0.79;66.00;100046.25;5047443;28;20107;-67
2023/04/01 06:44:08;;;;;;;0.60;0.60;;;;;;;0.69;63.64;100055.34;5046368;28;20022;-68
2023/04/01 06:46:42;;;;;;;0.60;0.60;;;;;;;0.68;64.99;100046.84;5046834;28;20512;-66
2023/04/01 06:49:38;;;;;;;0.50;0.50;;;;;;;0.85;64.52;100054.06;5047365;28;20026;-66
2023/04/01 06:52:17;;;;;;;0.50;0.50;;;;;;;0.99;65.96;100054.44;5046263;28;20029;-69
2023/04/01 06:55:01;;;;;;;0.50;0.50;;;;;;;1.01;64.41;100059.59;5046350;28;20036;-68
2023/04/01 06:57:29;;;;;;;0.60;0.60;;;;;;;1.06;64.15;100061.41;5046884;28;20033;-69
2023/04/01 06:59:58;;;;;;;0.60;0.60;;;;;;;1.27;63.29;100050.00;5046728;28;20026;-67
2023/04/01 07:02:38;;;;;;;0.60;0.60;;;;;;;1.38;63.99;100060.47;5047129;28;20083;-69
2023/04/01 07:05:05;;;;;;;0.50;0.50;;;;;;;1.54;63.33;100066.81;5046902;28;20028;-69
2023/04/01 07:07:49;;;;;;;0.60;0.60;;;;;;;1.73;64.06;100069.78;5046733;28;20033;-69
2023/04/01 07:10:19;;;;;;;0.60;0.60;;;;;;;1.84;64.79;100085.38;5046867;28;20083;-69
2023/04/01 07:12:51;;;;;;;0.50;0.50;;;;;;;1.86;64.43;100081.16;5046915;28;20021;-69
2023/04/01 07:15:30;;;;;;;0.60;0.60;;;;;;;1.95;62.53;100073.69;5046411;28;20018;-69
2023/04/01 07:18:01;;;;;;;0.60;0.60;;;;;;;2.13;59.47;100085.16;5045169;28;20045;-69
2023/04/01 07:20:31;;;;;;;0.50;0.50;;;;;;;2.02;60.58;100086.59;5046627;28;20021;-70
2023/04/01 07:23:04;;;;;;;0.50;0.50;;;;;;;1.87;60.62;100076.91;5045249;28;20076;-69
2023/04/01 07:25:35;;;;;;;0.70;0.70;;;;;;;1.90;59.10;100075.25;5044438;28;20120;-67
2023/04/01 07:28:04;;;;;;;0.63;0.63;;;;;;;1.81;60.05;100093.84;5044657;28;20025;-66
2023/04/01 07:30:52;;;;;;;0.50;0.50;;;;;;;2.00;61.17;100088.28;5045361;28;20414;-66
2023/04/01 07:33:43;;;;;;;0.60;0.60;;;;;;;1.96;58.51;100108.72;5046160;28;20025;-66
2023/04/01 07:36:35;;;;;;;0.40;0.40;;;;;;;2.03;59.77;100119.09;5046431;28;20083;-66
2023/04/01 07:39:07;;;;;;;0.70;0.70;;;;;;;2.38;60.31;100110.41;5026775;28;20064;-66
2023/04/01 07:41:52;;;;;;;0.60;0.60;;;;;;;2.34;58.89;100117.16;5044778;28;20218;-66
2023/04/01 07:44:31;;;;;;;0.40;0.40;;;;;;;2.43;59.68;100127.59;5045308;28;20037;-65
2023/04/01 07:47:32;;;;;;;0.50;0.50;;;;;;;2.53;60.27;100113.28;5045380;28;20033;-66
2023/04/01 07:50:16;;;;;;;0.50;0.50;;;;;;;2.61;59.06;100136.50;5045810;28;20021;-66
2023/04/01 07:53:09;;;;;;;0.50;0.50;;;;;;;2.69;60.43;100127.25;5046060;28;20072;-67
2023/04/01 07:55:34;;;;;;;0.60;0.60;;;;;;;2.68;57.99;100125.53;5046045;28;20054;-67
2023/04/01 07:58:31;;;;;;;0.70;0.70;;;;;;;2.78;57.74;100128.28;5045945;28;20029;-66
2023/04/01 08:01:32;;;;;;;0.50;0.50;;;;;;;2.87;57.96;100136.16;5043299;28;20045;-67
2023/04/01 08:04:09;;;;;;;0.50;0.50;;;;;;;2.82;58.08;100137.75;5045344;28;20091;-65
2023/04/01 08:07:02;;;;;;;0.50;0.50;;;;;;;2.62;57.92;100161.28;5044977;28;20018;-65
2023/04/01 08:09:33;;;;;;;0.73;0.73;;;;;;;2.54;58.25;100122.69;5045680;28;20030;-66
2023/04/01 08:12:07;;;;;;;0.60;0.60;;;;;;;2.54;57.93;100140.63;5045431;28;20045;-66
2023/04/01 08:14:51;;;;;;;0.60;0.60;;;;;;;2.59;59.18;100135.59;5045622;28;20155;-66
2023/04/01 08:18:00;;;;;;;0.50;0.50;;;;;;;2.79;58.68;100136.00;5045304;28;20053;-66
2023/04/01 08:20:45;;;;;;;0.50;0.50;;;;;;;2.72;59.83;100155.53;5022196;28;20041;-66
2023/04/01 08:23:10;;;;;;;0.50;0.50;;;;;;;2.89;57.46;100149.84;5045539;28;20029;-66
2023/04/01 08:25:42;;;;;;;0.70;0.70;;;;;;;2.91;57.36;100155.88;5045203;28;20032;-66
2023/04/01 08:28:07;;;;;;;0.60;0.60;;;;;;;2.89;56.28;100154.97;5044087;28;20028;-67
2023/04/01 08:30:45;;;;;;;0.50;0.50;;;;;;;2.72;57.96;100162.34;5045176;28;20034;-67
2023/04/01 08:33:23;;;;;;;0.50;0.50;;;;;;;2.86;58.10;100152.34;5045250;28;20025;-66
2023/04/01 08:35:52;;;;;;;0.50;0.50;;;;;;;3.08;59.36;100170.72;5045194;28;20033;-67
2023/04/01 08:38:54;;;;;;;0.50;0.50;;;;;;;3.23;58.29;100157.28;5043856;28;20049;-66
2023/04/01 08:41:48;;;;;;;0.70;0.70;;;;;;;3.35;56.01;100146.41;5043872;28;20042;-67
2023/04/01 08:44:32;;;;;;;0.50;0.50;;;;;;;3.55;53.67;100164.69;5040913;28;20493;-65
2023/04/01 08:47:25;;;;;;;0.50;0.50;;;;;;;3.52;54.42;100156.94;5045544;28;20048;-65
2023/04/01 08:50:03;;;;;;;0.50;0.50;;;;;;;3.63;54.30;100153.66;5044841;28;20029;-65
2023/04/01 08:53:09;;;;;;;0.50;0.50;;;;;;;3.72;54.09;100182.91;5045202;28;20029;-67
2023/04/01 08:56:17;;;;;;;0.50;0.50;;;;;;;3.73;52.88;100178.66;5035212;28;20548;-65
2023/04/01 08:58:56;;;;;;;0.50;0.50;;;;;;;3.83;53.78;100190.78;5033294;23;20057;-61
2023/04/01 09:01:35;;;;;;;0.52;0.52;;;;;;;3.89;54.67;100168.63;5053802;23;20101;-67
2023/04/01 09:04:33;;;;;;;0.50;0.50;;;;;;;4.08;53.77;100185.19;5043913;28;20025;-67
2023/04/01 09:07:19;;;;;;;0.50;0.50;;;;;;;4.31;53.81;100195.78;5044455;22;20448;-63
2023/04/01 09:10:09;;;;;;;0.50;0.50;;;;;;;4.28;53.04;100170.03;5084409;28;20147;-63
2023/04/01 09:13:19;;;;;;;0.50;0.50;;;;;;;4.22;53.26;100187.94;5066988;28;20020;-64
2023/04/01 09:15:58;;;;;;;0.50;0.50;;;;;;;4.59;53.15;100180.75;5084630;28;20021;-64
2023/04/01 09:18:57;;;;;;;0.50;0.50;;;;;;;4.73;53.62;100171.47;5085184;28;20091;-64
2023/04/01 09:21:41;;;;;;;0.50;0.50;;;;;;;5.03;55.93;100170.09;5084935;28;20031;-65
2023/04/01 09:24:16;;;;;;;0.50;0.50;;;;;;;5.40;54.91;100160.13;5084946;28;20024;-63
2023/04/01 09:27:32;;;;;;;0.50;0.50;;;;;;;5.37;53.19;100187.59;5084832;28;20042;-63
2023/04/01 09:30:16;;;;;;;0.50;0.50;;;;;;;5.39;52.66;100173.00;5062260;28;20033;-64
2023/04/01 09:33:11;;;;;;;0.50;0.50;;;;;;;5.83;52.86;100175.06;5059963;28;20045;-64
2023/04/01 09:35:58;;;;;;;0.50;0.50;;;;;;;5.95;55.25;100174.31;5003055;28;20398;-65
2023/04/01 09:38:35;;;;;;;0.50;0.50;;;;;;;6.28;51.91;100176.22;5003161;28;20041;-63
2023/04/01 09:41:42;;;;;;;0.50;0.50;;;;;;;6.52;52.29;100185.81;5003103;28;20165;-65
2023/04/01 09:44:19;;;;;;;0.70;0.70;;;;;;;6.65;53.66;100181.59;4926129;29;20032;-64
2023/04/01 09:46:45;;;;;;;0.50;0.50;;;;;;;6.84;50.81;100181.66;4925744;29;20060;-65
2023/04/01 09:49:57;;;;;;;0.50;0.50;;;;;;;6.90;51.82;100179.09;4925892;29;20048;-65
2023/04/01 09:52:41;;;;;;;0.50;0.50;;;;;;;7.04;54.04;100178.28;4849765;29;20053;-64
2023/04/01 09:55:21;;;;;;;0.50;0.50;;;;;;;7.33;50.67;100195.56;4851966;29;20053;-64
2023/04/01 09:58:09;;;;;;;0.50;0.50;;;;;;;7.28;52.40;100180.06;4854354;29;20088;-64
2023/04/01 10:01:25;;;;;;;0.50;0.50;;;;;;;7.66;51.78;100196.44;4852601;29;20483;-64
2023/04/01 10:04:14;;;;;;;0.50;0.50;;;;;;;7.73;51.94;100189.53;4846255;29;20133;-64
2023/04/01 10:06:51;;;;;;;0.50;0.50;;;;;;;8.34;55.45;100210.13;4834752;29;20077;-64
2023/04/01 10:09:41;;;;;;;0.50;0.50;;;;;;;8.36;51.87;100187.72;4834593;29;20495;-64
2023/04/01 10:12:42;;;;;;;0.50;0.50;;;;;;;8.30;54.05;100187.75;4847574;29;20838;-64
2023/04/01 10:15:25;;;;;;;0.50;0.50;;;;;;;8.26;52.50;100193.81;4857117;29;20041;-64
2023/04/01 10:18:04;;;;;;;0.50;0.50;;;;;;;8.45;54.41;100191.16;4872944;29;20025;-64
2023/04/01 10:20:55;;;;;;;0.40;0.40;;;;;;;9.15;47.69;100191.72;4890526;29;20037;-64
2023/04/01 10:23:38;;;;;;;0.50;0.50;;;;;;;8.55;50.98;100195.44;4967172;29;20142;-62
2023/04/01 10:26:41;;;;;;;0.40;0.40;;;;;;;8.58;49.17;100189.44;5003418;28;20041;-63
2023/04/01 10:29:30;;;;;;;0.50;0.50;;;;;;;8.21;49.01;100198.97;5065773;28;20017;-64
2023/04/01 10:32:16;;;;;;;0.50;0.50;;;;;;;7.96;49.14;100193.84;5066270;28;20052;-65
2023/04/01 10:35:29;;;;;;;0.50;0.50;;;;;;;7.87;47.90;100192.13;5067080;28;20056;-64
2023/04/01 10:38:06;;;;;;;0.50;0.50;;;;;;;7.74;51.46;100195.56;5018399;28;20033;-62
2023/04/01 10:41:04;;;;;;;0.50;0.50;;;;;;;7.96;47.92;100226.56;5008869;28;20089;-63
2023/04/01 10:43:57;;;;;;;0.40;0.40;;;;;;;7.78;47.65;100207.66;5025362;28;20061;-63
2023/04/01 10:46:54;;;;;;;0.50;0.50;;;;;;;7.62;49.76;100206.78;5025160;28;20038;-62
2023/04/01 10:49:31;;;;;;;0.40;0.40;;;;;;;7.88;49.50;100214.53;5025065;28;20030;-64
2023/04/01 10:52:22;;;;;;;0.45;0.45;;;;;;;7.51;47.60;100223.13;5025153;28;20068;-63
2023/04/01 10:55:17;;;;;;;0.60;0.60;;;;;;;7.09;50.02;100209.25;5002331;28;20100;-63
2023/04/01 10:58:13;;;;;;;0.50;0.50;;;;;;;7.36;52.28;100221.38;5019407;28;20096;-63
2023/04/01 11:01:09;;;;;;;0.50;0.50;;;;;;;7.49;52.77;100221.41;5023540;28;20038;-63
2023/04/01 11:03:52;;;;;;;0.50;0.50;;;;;;;7.53;52.13;100223.13;5024928;28;20029;-62
2023/04/01 11:06:47;;;;;;;0.50;0.50;;;;;;;7.62;50.52;100228.28;5007953;28;20034;-63
2023/04/01 11:09:43;;;;;;;0.50;0.50;;;;;;;7.51;50.99;100224.81;4995636;28;20061;-62
2023/04/01 11:12:20;;;;;;;0.70;0.70;;;;;;;7.53;51.47;100238.63;5036406;28;20048;-65
2023/04/01 11:14:48;;;;;;;0.50;0.50;;;;;;;7.96;51.30;100222.28;5066626;28;20096;-64
2023/04/01 11:17:26;;;;;;;0.50;0.50;;;;;;;8.33;49.63;100216.19;5066515;28;20029;-64
2023/04/01 11:20:29;;;;;;;0.50;0.50;;;;;;;8.33;48.88;100247.22;5066691;28;20025;-62
2023/04/01 11:23:09;;;;;;;0.43;0.43;;;;;;;8.49;48.76;100242.88;5066828;28;20088;-62
2023/04/01 11:26:08;;;;;;;0.50;0.50;;;;;;;8.25;49.56;100244.66;5065291;28;20061;-62
2023/04/01 11:28:35;;;;;;;0.50;0.50;;;;;;;8.30;47.54;100242.06;5066430;28;20104;-62
2023/04/01 11:31:23;;;;;;;0.50;0.50;;;;;;;7.49;50.74;100247.22;5065941;28;20087;-63
2023/04/01 11:33:55;;;;;;;0.50;0.50;;;;;;;6.44;51.08;100239.06;5066217;28;20028;-64
2023/04/01 11:36:53;;;;;;;0.50;0.50;;;;;;;5.50;52.29;100232.31;5065734;28;20025;-63
2023/04/01 11:39:23;;;;;;;0.50;0.50;;;;;;;5.01;52.69;100242.09;5066537;28;20024;-61
2023/04/01 11:42:13;;;;;;;0.50;0.50;;;;;;;4.67;53.21;100239.97;5066435;28;20025;-63
2023/04/01 11:44:58;;;;;;;0.50;0.50;;;;;;;4.36;54.96;100254.94;5066214;28;20084;-62
2023/04/01 11:47:45;;;;;;;0.50;0.50;;;;;;;4.20;55.39;100228.19;5066030;28;20043;-61
2023/04/01 11:50:31;;;;;;;0.50;0.50;;;;;;;4.14;55.92;100251.22;5065733;28;20021;-63
2023/04/01 11:59:59;;;;;;;0.50;0.50;;;;;;;4.15;54.66;100248.69;4409144;27;1511978;-64
2023/04/01 12:02:52;;;;;;;0.40;0.40;;;;;;;4.05;54.93;100272.47;5086699;22;20080;-64
2023/04/01 12:07:46;;;;;;;0.50;0.50;;;;;;;3.93;55.90;100260.31;5078270;22;20166;-65
2023/04/01 12:10:14;;;;;;;0.50;0.50;;;;;;;3.98;56.84;100261.22;5062542;28;20032;-65
2023/04/01 12:12:48;;;;;;;0.50;0.50;;;;;;;4.13;52.33;100258.06;5081544;28;20017;-66
2023/04/01 12:15:20;;;;;;;0.50;0.50;;;;;;;4.08;54.97;100262.25;5082348;28;20369;-66
2023/04/01 12:18:01;;;;;;;0.60;0.60;;;;;;;4.26;53.22;100273.66;5064188;28;20053;-65
2023/04/01 12:20:38;;;;;;;0.50;0.50;;;;;;;4.27;52.28;100265.09;5081866;28;20024;-66